Main page
METAR-TAF:

METAR-TAF

Airports :

N'Djamena International Airport

N'Djamena, Chad

latitude: 12-08N, longitude: 015-02E, elevation: 295 m

Current weather observation

The report was made 33 minutes ago, at 11:00 UTC
Wind 5 kt from the South, varying between South and West
Temperature 30°C
Humidity 70%
Pressure 1014 hPa
Visibility 10 km or more
Scattered clouds at a height of 3300 ft

METAR: FTTJ 151100Z 18005KT 180V270 9999 SCT033 30/24 Q1014 NOSIG

Time: 12:33 (11:33 UTC)

Forecast

The report was made 5 hours and 25 minutes ago, at 06:08 UTC
Forecast valid from 15 at 06 UTC to 16 at 12 UTC
Wind 5 kt from the West/Southwest
Visibility 10 km or more
Few clouds at a height of 3000 ft
Probability 30% :
Temporary
from 15 at 10 UTC to 15 at 18 UTC
Visibility: 4000 m
thunderstorm, rain

TAF: FTTJ 150608Z 1506/1612 24005KT 9999 FEW030 PROB30 TEMPO 1510/1518 4000 TSRA

Weather observations and forecasts of more than 4000 airports (METAR and TAF reports).

The available stations are represented by yellow and red dots on the map.

Hover mouse over dot to see the name of the station.

Then click to see weather observations and forecasts.

To change the map : click on the green buttons with a black cross to zoom in, on the green button with a dash to zoom out, or on the green arrows for adjacent maps.


METAR-TAF: